createdAt,value
2019-02-25T00:01:49.739Z,38.24
2019-02-25T00:06:52.517Z,38.21
2019-02-25T00:11:55.285Z,38.20
2019-02-25T00:16:58.126Z,38.18
2019-02-25T00:22:00.900Z,38.07
2019-02-25T00:27:03.757Z,38.05
2019-02-25T00:32:06.528Z,38.05
2019-02-25T00:37:09.328Z,37.97
2019-02-25T00:42:12.118Z,37.97
2019-02-25T00:47:14.873Z,37.94
2019-02-25T00:52:17.636Z,37.87
2019-02-25T00:57:20.442Z,37.87
2019-02-25T01:02:23.207Z,37.97
2019-02-25T01:07:25.990Z,37.88
2019-02-25T01:12:28.844Z,37.88
2019-02-25T01:17:31.640Z,38.29
2019-02-25T01:22:34.424Z,38.52
2019-02-25T01:27:37.280Z,38.59
2019-02-25T01:32:40.136Z,38.67
2019-02-25T01:37:42.972Z,38.72
2019-02-25T01:42:45.764Z,38.65
2019-02-25T01:47:48.615Z,38.59
2019-02-25T01:52:51.530Z,38.57
2019-02-25T01:57:54.345Z,38.55
2019-02-25T02:02:57.172Z,38.49
2019-02-25T02:07:59.948Z,38.46
2019-02-25T02:13:02.800Z,38.48
2019-02-25T02:18:05.616Z,38.39
2019-02-25T02:23:08.544Z,38.29
2019-02-25T02:28:11.323Z,38.24
2019-02-25T02:33:14.119Z,38.24
2019-02-25T02:38:16.876Z,38.14
2019-02-25T02:43:19.677Z,38.13
2019-02-25T02:48:26.696Z,38.03
2019-02-25T02:53:29.497Z,38.07
2019-02-25T02:58:32.365Z,37.90
2019-02-25T03:03:35.181Z,37.84
2019-02-25T03:08:37.971Z,37.80
2019-02-25T03:13:40.790Z,37.81
2019-02-25T03:18:43.546Z,37.68
2019-02-25T03:23:46.585Z,37.72
2019-02-25T03:28:49.408Z,37.62
2019-02-25T03:33:52.262Z,37.61
2019-02-25T03:38:55.050Z,37.60
2019-02-25T03:43:57.834Z,37.55
2019-02-25T03:49:00.604Z,37.48
2019-02-25T03:54:03.438Z,37.50
2019-02-25T03:59:06.293Z,37.56
2019-02-25T04:04:09.168Z,37.41
2019-02-25T04:09:12.027Z,37.38
2019-02-25T04:14:14.790Z,37.31
2019-02-25T04:19:17.581Z,37.30
2019-02-25T04:24:20.369Z,37.19
2019-02-25T04:29:23.217Z,37.14
2019-02-25T04:34:26.001Z,37.19
2019-02-25T04:39:28.785Z,37.21
2019-02-25T04:44:31.573Z,37.08
2019-02-25T04:49:34.363Z,37.11
2019-02-25T04:54:37.260Z,37.11
2019-02-25T04:59:40.072Z,37.10
2019-02-25T05:04:42.842Z,37.09
2019-02-25T05:09:45.636Z,37.03
2019-02-25T05:14:48.416Z,37.07
2019-02-25T05:19:51.188Z,37.32
2019-02-25T05:24:53.971Z,37.63
2019-02-25T05:29:56.760Z,38.26
2019-02-25T05:34:59.547Z,38.68
2019-02-25T05:45:28.385Z,39.42
2019-02-25T05:50:31.164Z,39.40
2019-02-25T05:55:33.951Z,39.08
2019-02-25T06:00:36.878Z,39.04
2019-02-25T06:05:39.672Z,38.69
2019-02-25T06:16:11.292Z,38.47
2019-02-25T06:21:14.117Z,38.33
2019-02-25T06:26:22.810Z,38.24
2019-02-25T06:31:26.076Z,38.17
2019-02-25T06:36:28.861Z,38.05
2019-02-25T06:41:49.247Z,38.01
2019-02-25T06:46:49.293Z,38.04
2019-02-25T06:51:52.148Z,37.90
2019-02-25T06:56:54.932Z,37.75
2019-02-25T07:01:57.699Z,37.75
2019-02-25T07:07:11.112Z,37.59
2019-02-25T07:12:24.389Z,37.58
2019-02-25T07:17:40.720Z,37.48
2019-02-25T07:22:45.165Z,37.46
2019-02-25T07:33:41.509Z,37.26
2019-02-25T07:38:51.581Z,37.22
2019-02-25T07:43:56.000Z,37.18
2019-02-25T07:49:06.067Z,37.20
2019-02-25T07:54:10.497Z,37.19
2019-02-25T07:59:31.507Z,37.08
2019-02-25T08:04:41.965Z,37.05
2019-02-25T08:09:52.270Z,36.93
2019-02-25T08:15:05.700Z,36.92
2019-02-25T08:20:22.456Z,36.90
2019-02-25T08:25:42.904Z,36.79
2019-02-25T08:30:47.412Z,36.76
2019-02-25T08:35:58.964Z,36.65
2019-02-25T08:41:04.219Z,36.61
2019-02-25T08:46:26.656Z,36.59
2019-02-25T08:51:29.426Z,36.59
2019-02-25T08:56:32.324Z,36.50
2019-02-25T09:01:35.189Z,36.45
2019-02-25T09:06:37.980Z,36.40
2019-02-25T09:11:40.745Z,36.40
2019-02-25T09:16:43.612Z,36.21
2019-02-25T09:21:46.392Z,36.24
2019-02-25T09:26:49.164Z,36.17
2019-02-25T09:31:51.969Z,36.14
2019-02-25T09:36:54.765Z,36.13
2019-02-25T09:41:57.525Z,36.17
2019-02-25T09:47:00.305Z,36.04
2019-02-25T09:52:03.073Z,36.00
2019-02-25T09:57:05.836Z,35.96
2019-02-25T10:02:08.616Z,35.94
2019-02-25T10:07:11.505Z,35.93
2019-02-25T10:12:14.299Z,35.78
2019-02-25T10:17:23.518Z,35.80
2019-02-25T10:22:21.520Z,35.68
2019-02-25T10:27:24.290Z,35.71
2019-02-25T10:32:28.066Z,35.62
2019-02-25T10:37:31.535Z,35.56
2019-02-25T10:42:36.102Z,35.56
2019-02-25T10:47:38.816Z,35.54
2019-02-25T10:52:42.947Z,35.53
2019-02-25T10:57:46.408Z,35.51
2019-02-25T11:02:51.152Z,35.47
2019-02-25T11:07:53.721Z,35.42
2019-02-25T11:12:57.700Z,35.42
2019-02-25T11:18:00.987Z,35.33
2019-02-25T11:23:03.921Z,35.28
2019-02-25T11:28:07.708Z,35.25
2019-02-25T11:33:11.346Z,35.14
2019-02-25T11:38:14.129Z,35.05
2019-02-25T11:43:18.912Z,34.91
2019-02-25T11:48:22.692Z,35.00
2019-02-25T11:53:25.592Z,35.01
2019-02-25T11:58:28.458Z,34.87
2019-02-25T12:03:31.254Z,34.61
2019-02-25T12:08:34.047Z,34.77
2019-02-25T12:13:36.816Z,34.40
2019-02-25T12:18:39.604Z,34.46
2019-02-25T12:23:42.391Z,34.02
2019-02-25T12:28:45.173Z,34.28
2019-02-25T12:33:47.965Z,34.19
2019-02-25T12:38:50.735Z,34.29
2019-02-25T12:43:53.516Z,34.11
2019-02-25T12:48:56.292Z,33.81
2019-02-25T12:53:59.092Z,34.05
2019-02-25T12:59:01.944Z,34.22
2019-02-25T13:04:04.806Z,34.29
2019-02-25T13:09:09.104Z,34.30
2019-02-25T13:14:11.932Z,34.29
2019-02-25T13:19:14.712Z,33.74
2019-02-25T13:24:17.489Z,33.68
2019-02-25T13:29:20.277Z,33.51
2019-02-25T13:34:23.054Z,33.32
2019-02-25T13:39:25.840Z,33.15
2019-02-25T13:44:28.694Z,33.04
2019-02-25T13:49:31.466Z,33.03
2019-02-25T13:54:34.246Z,32.74
2019-02-25T13:59:37.230Z,32.34
2019-02-25T14:04:40.043Z,32.39
2019-02-25T14:09:42.885Z,32.38
2019-02-25T14:14:45.656Z,31.71
2019-02-25T14:19:48.488Z,30.93
2019-02-25T14:24:51.433Z,30.23
2019-02-25T14:29:54.288Z,30.49
2019-02-25T14:34:57.078Z,30.51
2019-02-25T14:40:02.872Z,30.45
2019-02-25T14:45:07.201Z,30.97
2019-02-25T14:50:14.417Z,30.98
2019-02-25T14:55:17.476Z,31.63
2019-02-25T15:00:29.192Z,32.01
2019-02-25T15:05:31.452Z,31.57
2019-02-25T15:10:36.227Z,31.67
2019-02-25T15:15:41.167Z,31.30
2019-02-25T15:24:53.051Z,31.51
2019-02-25T15:29:56.470Z,31.41
2019-02-25T15:34:59.253Z,32.40
2019-02-25T15:40:02.034Z,33.04
2019-02-25T15:45:06.420Z,33.34
2019-02-25T15:50:10.587Z,33.65
2019-02-25T15:55:17.385Z,33.76
2019-02-25T16:00:23.263Z,33.79
2019-02-25T16:05:27.921Z,33.92
2019-02-25T16:10:31.735Z,34.02
2019-02-25T16:15:34.805Z,34.23
2019-02-25T16:20:37.667Z,34.26
2019-02-25T16:25:40.522Z,34.70
2019-02-25T16:30:44.708Z,35.18
2019-02-25T16:35:47.803Z,35.64
2019-02-25T16:40:54.723Z,36.09
2019-02-25T16:45:55.163Z,36.50
2019-02-25T16:50:57.953Z,36.53
2019-02-25T16:56:00.737Z,36.53
2019-02-25T17:01:06.026Z,36.39
2019-02-25T17:06:11.687Z,36.39
2019-02-25T17:11:15.648Z,36.36
2019-02-25T17:16:23.515Z,36.41
2019-02-25T17:21:23.391Z,36.57
2019-02-25T17:26:26.248Z,36.74
2019-02-25T17:31:30.559Z,36.79
2019-02-25T17:36:33.606Z,36.77
2019-02-25T17:41:37.847Z,36.85
2019-02-25T17:46:41.289Z,37.01
2019-02-25T17:51:45.327Z,37.00
2019-02-25T17:56:49.759Z,37.05
2019-02-25T18:01:52.917Z,37.12
2019-02-25T18:06:55.767Z,37.17
2019-02-25T18:12:00.041Z,37.20
2019-02-25T18:17:03.396Z,37.15
2019-02-25T18:22:07.450Z,37.22
2019-02-25T18:27:11.949Z,37.16
2019-02-25T18:32:15.271Z,37.31
2019-02-25T18:37:18.309Z,37.32
2019-02-25T18:42:21.155Z,37.28
2019-02-25T18:47:25.597Z,37.35
2019-02-25T18:52:29.650Z,38.04
2019-02-25T18:57:32.937Z,38.35
2019-02-25T19:02:36.464Z,38.61
2019-02-25T19:07:40.430Z,38.75
2019-02-25T19:12:43.890Z,38.76
2019-02-25T19:17:48.465Z,38.74
2019-02-25T19:22:53.331Z,38.70
2019-02-25T19:27:56.589Z,38.64
2019-02-25T19:33:09.288Z,38.60
2019-02-25T19:38:07.544Z,38.57
2019-02-25T19:43:10.146Z,38.41
2019-02-25T19:48:13.457Z,38.39
2019-02-25T19:53:19.454Z,38.30
2019-02-25T19:58:21.013Z,38.29
2019-02-25T20:03:23.805Z,38.23
2019-02-25T20:08:26.668Z,38.14
2019-02-25T20:13:29.553Z,38.15
2019-02-25T20:18:33.814Z,38.12
2019-02-25T20:23:36.826Z,38.09
2019-02-25T20:28:41.232Z,38.12
2019-02-25T20:33:44.089Z,38.08
2019-02-25T20:38:46.889Z,38.10
2019-02-25T20:43:53.940Z,38.11
2019-02-25T20:48:56.033Z,38.05
2019-02-25T20:53:58.648Z,38.18
2019-02-25T20:59:03.349Z,38.03
2019-02-25T21:04:05.936Z,38.01
2019-02-25T21:09:09.304Z,37.90
2019-02-25T21:14:13.196Z,38.03
2019-02-25T21:19:18.394Z,37.91
2019-02-25T21:24:20.494Z,37.88
2019-02-25T21:29:25.190Z,37.79
2019-02-25T21:34:29.165Z,37.71
2019-02-25T21:39:34.294Z,37.71
2019-02-25T21:44:36.775Z,37.64
2019-02-25T21:49:40.549Z,37.62
2019-02-25T21:54:44.913Z,37.56
2019-02-25T21:59:47.813Z,37.60
2019-02-25T22:04:51.886Z,37.57
2019-02-25T22:09:55.039Z,37.59
2019-02-25T22:14:57.818Z,37.52
